createdAt,value
2022-12-24T07:29:23.241Z,80.33
2022-12-24T10:50:46.753Z,49.57
2022-12-24T10:51:47.807Z,50.44
2022-12-24T10:52:47.858Z,50.62
2022-12-24T10:53:47.974Z,50.31
2022-12-24T10:54:48.275Z,49.05
2022-12-24T10:55:48.121Z,49.26
2022-12-24T10:56:48.473Z,48.12
2022-12-24T13:35:03.973Z,77.01
2022-12-24T13:36:05.010Z,77.88
2022-12-24T13:37:05.117Z,78.50
2022-12-24T13:38:05.301Z,78.86
2022-12-24T13:55:19.064Z,76.63
2022-12-24T13:56:27.129Z,74.36
2022-12-24T13:58:00.242Z,67.26
2022-12-24T13:59:01.265Z,65.27
2022-12-24T14:08:29.362Z,61.52
2022-12-24T14:09:30.351Z,61.65
2022-12-24T14:10:30.429Z,61.54
2022-12-24T14:11:36.389Z,61.50
2022-12-24T14:12:30.573Z,61.52
2022-12-24T14:13:30.823Z,61.55
2022-12-24T14:14:38.151Z,61.23
2022-12-24T14:15:39.187Z,61.68
2022-12-24T14:30:34.584Z,61.23
2022-12-24T14:31:35.391Z,61.40
2022-12-24T14:32:35.438Z,61.09
2022-12-24T14:33:35.494Z,60.88
2022-12-24T14:34:35.518Z,60.70
2022-12-24T14:35:35.597Z,60.55
2022-12-24T14:36:35.619Z,60.41
2022-12-24T14:37:35.696Z,60.31
2022-12-24T14:38:35.731Z,60.20
2022-12-24T14:39:35.743Z,60.13
2022-12-24T14:40:35.894Z,60.05
2022-12-24T14:41:35.835Z,59.95
2022-12-24T14:42:35.924Z,59.81
2022-12-24T14:43:35.912Z,59.76
2022-12-24T14:44:36.128Z,59.68
2022-12-24T14:45:36.074Z,59.60
2022-12-24T14:46:36.137Z,59.57
2022-12-24T14:47:36.131Z,59.40
2022-12-24T14:48:36.188Z,59.36
2022-12-24T14:49:36.139Z,59.28
2022-12-24T14:50:36.237Z,59.23
2022-12-24T14:51:36.567Z,59.20
2022-12-24T14:53:09.311Z,59.11
2022-12-24T14:53:36.300Z,59.07
2022-12-24T14:54:36.375Z,58.98
2022-12-24T14:55:36.378Z,58.94
2022-12-24T14:56:37.688Z,58.87
2022-12-24T14:57:36.444Z,58.83
2022-12-24T14:58:36.495Z,58.77
2022-12-24T14:59:36.503Z,58.70
2022-12-24T15:00:44.243Z,58.65
2022-12-24T15:01:36.749Z,58.61
2022-12-24T15:02:37.160Z,58.53
2022-12-24T15:03:36.702Z,58.47
2022-12-24T15:04:36.707Z,58.41
2022-12-24T15:05:36.699Z,58.35
2022-12-24T15:06:36.795Z,58.29
2022-12-24T15:07:39.530Z,58.26
2022-12-24T15:08:36.822Z,58.23
2022-12-24T15:09:37.036Z,58.18
2022-12-24T15:10:36.906Z,58.10
2022-12-24T15:11:36.898Z,58.02
2022-12-24T15:12:36.929Z,57.99
2022-12-24T15:13:37.352Z,57.92
2022-12-24T15:14:37.211Z,57.89
2022-12-24T15:15:36.985Z,57.83
2022-12-24T15:16:37.374Z,57.75
2022-12-24T15:17:37.064Z,57.71
2022-12-24T15:18:37.122Z,57.66
2022-12-24T15:19:37.142Z,57.62
2022-12-24T15:20:37.194Z,57.58
2022-12-24T15:21:37.736Z,57.53
2022-12-24T15:22:37.309Z,57.46
2022-12-24T15:23:37.363Z,57.39
2022-12-24T15:24:37.409Z,57.34
2022-12-24T15:25:37.404Z,57.30
2022-12-24T15:26:37.480Z,57.25
2022-12-24T15:27:37.487Z,57.23
2022-12-24T15:28:37.546Z,57.18
2022-12-24T15:29:37.809Z,57.14
2022-12-24T15:30:37.652Z,57.08
2022-12-24T15:31:37.617Z,57.06
2022-12-24T15:32:37.664Z,57.01
2022-12-24T15:33:37.703Z,56.95
2022-12-24T15:34:37.756Z,56.90
2022-12-24T15:35:37.808Z,56.84
2022-12-24T15:36:37.857Z,56.83
2022-12-24T15:37:37.880Z,56.80
2022-12-24T15:38:37.990Z,56.77
2022-12-24T15:39:37.968Z,56.71
2022-12-24T15:40:38.490Z,56.71
2022-12-24T15:41:38.257Z,56.64
2022-12-24T15:42:38.613Z,56.61
2022-12-24T15:43:38.186Z,56.56
2022-12-24T15:44:38.239Z,56.53
2022-12-24T15:45:38.291Z,56.51
2022-12-24T15:46:38.336Z,56.45
2022-12-24T15:47:38.783Z,56.42
2022-12-24T15:48:38.394Z,56.39
2022-12-24T15:49:38.376Z,56.36
2022-12-24T15:50:38.429Z,56.32
2022-12-24T15:51:40.295Z,56.26
2022-12-24T15:52:38.489Z,56.24
2022-12-24T15:53:38.489Z,56.22
2022-12-24T15:54:38.535Z,56.18
2022-12-24T15:55:38.769Z,56.13
2022-12-24T15:56:38.626Z,56.10
2022-12-24T15:57:38.617Z,56.08
2022-12-24T15:58:38.684Z,56.07
2022-12-24T15:59:39.040Z,56.02
2022-12-24T16:00:38.756Z,55.98
2022-12-24T16:01:38.847Z,55.94
2022-12-24T16:02:39.197Z,55.90
2022-12-24T16:03:38.885Z,55.88
2022-12-24T16:04:39.155Z,55.85
2022-12-24T16:05:38.947Z,55.81
2022-12-24T16:06:38.984Z,55.80
2022-12-24T16:07:39.304Z,55.78
2022-12-24T16:08:39.066Z,55.74
2022-12-24T16:09:39.078Z,55.72
2022-12-24T16:10:39.129Z,55.69
2022-12-24T16:11:39.386Z,55.66
2022-12-24T16:12:39.215Z,55.62
2022-12-24T16:13:39.241Z,55.59
2022-12-24T16:14:39.302Z,55.58
2022-12-24T16:15:39.353Z,55.56
2022-12-24T16:16:39.647Z,55.52
2022-12-24T16:17:39.426Z,55.49
2022-12-24T16:18:39.487Z,55.44
2022-12-24T16:19:40.697Z,55.44
2022-12-24T16:20:39.592Z,55.42
2022-12-24T16:21:39.635Z,55.37
2022-12-24T16:22:39.701Z,55.36
2022-12-24T16:23:39.694Z,55.33
2022-12-24T16:24:39.767Z,55.30
2022-12-24T16:25:39.771Z,55.27
2022-12-24T16:26:39.875Z,55.25
2022-12-24T16:27:39.859Z,55.23
2022-12-24T16:28:39.930Z,55.23
2022-12-24T16:29:39.971Z,55.17
2022-12-24T16:30:40.047Z,55.15
2022-12-24T16:31:40.095Z,55.14
2022-12-24T16:32:40.095Z,55.12
2022-12-24T16:33:40.129Z,55.09
2022-12-24T16:34:40.497Z,55.06
2022-12-24T16:35:40.209Z,55.03
2022-12-24T16:36:40.287Z,55.02
2022-12-24T16:37:40.341Z,55.00
2022-12-24T16:38:40.402Z,54.97
2022-12-24T16:39:40.713Z,54.96
2022-12-24T16:40:40.526Z,54.93
2022-12-24T16:41:40.512Z,54.90
2022-12-24T16:42:40.571Z,54.87
2022-12-24T16:43:40.819Z,54.86
2022-12-24T16:44:40.653Z,54.83
2022-12-24T16:45:40.671Z,54.81
2022-12-24T16:46:40.814Z,54.81
2022-12-24T16:47:43.150Z,54.77
2022-12-24T16:48:41.035Z,54.76
2022-12-24T16:49:41.072Z,54.74
2022-12-24T16:50:40.871Z,54.71
2022-12-24T16:51:40.899Z,54.71
2022-12-24T16:52:40.966Z,54.67
2022-12-24T16:53:41.246Z,54.66
2022-12-24T16:54:41.060Z,54.63
2022-12-24T16:55:42.491Z,54.62
2022-12-24T16:56:41.091Z,54.60
2022-12-24T16:57:41.482Z,54.57
2022-12-24T16:58:41.197Z,54.55
2022-12-24T16:59:41.268Z,54.54
2022-12-24T17:00:41.289Z,54.53
2022-12-24T17:01:41.492Z,54.48
2022-12-24T17:02:41.671Z,54.50
2022-12-24T17:03:41.487Z,54.46
2022-12-24T17:04:41.449Z,54.46
2022-12-24T17:05:41.517Z,54.45
2022-12-24T17:06:41.846Z,54.43
2022-12-24T17:07:44.027Z,54.39
2022-12-24T17:08:41.630Z,54.38
2022-12-24T17:09:41.662Z,54.36
2022-12-24T17:10:41.677Z,54.34
2022-12-24T17:11:41.731Z,54.32
2022-12-24T17:12:41.773Z,54.29
2022-12-24T17:13:41.794Z,54.31
2022-12-24T17:14:41.840Z,54.29
2022-12-24T17:15:41.929Z,54.26
2022-12-24T17:16:41.889Z,54.22
2022-12-24T17:17:41.956Z,54.21
2022-12-24T17:18:41.967Z,54.20
2022-12-24T17:19:42.077Z,54.17
2022-12-24T17:20:42.049Z,54.15
2022-12-24T17:21:42.130Z,54.12
2022-12-24T17:22:42.140Z,54.12
2022-12-24T17:23:42.197Z,54.12
2022-12-24T17:24:42.251Z,54.09
2022-12-24T17:25:42.303Z,54.05
2022-12-24T17:26:42.311Z,54.06
2022-12-24T17:27:42.371Z,54.04
2022-12-24T17:28:42.409Z,54.03
2022-12-24T17:29:42.698Z,54.01
2022-12-24T17:30:42.542Z,54.01
2022-12-24T17:31:42.612Z,53.99
2022-12-24T17:32:42.823Z,53.96
2022-12-24T17:33:42.647Z,53.97
2022-12-24T17:34:42.667Z,53.94
2022-12-24T17:35:42.727Z,53.91
2022-12-24T17:36:42.989Z,53.90
2022-12-24T17:37:42.803Z,53.91
2022-12-24T17:38:42.833Z,53.89
2022-12-24T17:39:42.887Z,53.86
2022-12-24T17:40:42.905Z,53.86
2022-12-24T17:41:42.980Z,53.84
2022-12-24T17:42:42.959Z,53.83
2022-12-24T17:43:43.051Z,53.82
2022-12-24T17:44:43.025Z,53.80
2022-12-24T17:45:43.079Z,53.79
2022-12-24T17:46:43.280Z,53.76
2022-12-24T17:47:43.145Z,53.75
2022-12-24T17:48:43.184Z,53.74
2022-12-24T17:49:43.226Z,53.70
2022-12-24T17:50:43.259Z,53.70
2022-12-24T17:51:45.988Z,53.70
2022-12-24T17:52:43.369Z,53.67
2022-12-24T17:53:43.436Z,53.73
2022-12-24T17:54:43.389Z,53.68
2022-12-24T17:55:43.469Z,53.64
2022-12-24T17:56:43.500Z,53.62
2022-12-24T17:57:43.985Z,53.60
2022-12-24T17:58:43.596Z,53.60
2022-12-24T17:59:43.633Z,53.61
2022-12-24T18:00:43.659Z,53.63
2022-12-24T18:01:43.857Z,53.60
2022-12-24T18:02:43.923Z,53.61
2022-12-24T18:03:44.059Z,53.62
2022-12-24T18:04:43.874Z,53.59
2022-12-24T18:05:43.937Z,53.60
2022-12-24T18:06:48.988Z,53.60
2022-12-24T18:07:44.012Z,53.61
2022-12-24T18:08:44.058Z,53.61
2022-12-24T18:09:44.111Z,53.60
2022-12-24T18:10:44.117Z,53.60
2022-12-24T18:11:44.453Z,53.58
2022-12-24T18:12:44.206Z,53.59
2022-12-24T18:13:44.263Z,53.57
2022-12-24T18:14:44.313Z,53.57
2022-12-24T18:15:44.385Z,53.56
2022-12-24T18:16:44.439Z,53.57
2022-12-24T18:17:44.449Z,53.57
2022-12-24T18:18:44.467Z,53.57
2022-12-24T18:19:44.709Z,53.57
2022-12-24T18:20:46.889Z,53.55
2022-12-24T18:21:44.638Z,53.59
2022-12-24T18:22:44.638Z,53.60
2022-12-24T18:23:44.716Z,53.60
2022-12-24T18:24:44.983Z,53.60
2022-12-24T18:25:44.807Z,53.60
2022-12-24T18:26:44.814Z,53.60
2022-12-24T18:27:45.144Z,53.58
2022-12-24T18:28:44.921Z,53.60
2022-12-24T18:29:44.988Z,53.58
2022-12-24T18:30:44.999Z,53.58
2022-12-24T18:31:45.171Z,53.56
2022-12-24T18:32:45.347Z,53.55
2022-12-24T18:33:45.152Z,53.54
2022-12-24T18:34:45.169Z,53.54
2022-12-24T18:35:45.238Z,53.54
2022-12-24T18:36:48.357Z,53.53
2022-12-24T18:37:45.584Z,53.55
2022-12-24T18:38:45.360Z,53.54
2022-12-24T18:39:45.425Z,53.50
2022-12-24T18:40:45.465Z,53.49
2022-12-24T18:41:45.778Z,53.47
2022-12-24T18:42:45.544Z,53.48
2022-12-24T18:43:45.609Z,53.46
2022-12-24T18:44:45.634Z,53.44
2022-12-24T18:45:45.714Z,53.43
2022-12-24T18:46:45.771Z,53.43
2022-12-24T18:47:46.050Z,53.40
2022-12-24T18:48:45.831Z,53.40
2022-12-24T18:49:45.897Z,53.39
2022-12-24T18:50:45.912Z,53.38
2022-12-24T18:51:46.117Z,53.33
2022-12-24T18:52:45.999Z,53.35
2022-12-24T18:53:46.096Z,53.33
2022-12-24T18:54:46.064Z,53.33
2022-12-24T18:55:46.129Z,53.30
2022-12-24T18:56:47.309Z,53.30
2022-12-24T18:57:46.232Z,53.29
2022-12-24T18:58:46.288Z,53.27
2022-12-24T18:59:46.295Z,53.27
2022-12-24T19:00:46.343Z,53.25
2022-12-24T19:01:46.798Z,53.23
2022-12-24T19:02:46.505Z,53.24
2022-12-24T19:03:46.476Z,53.19
2022-12-24T19:04:46.487Z,53.19
2022-12-24T19:05:46.557Z,53.17
2022-12-24T19:06:52.654Z,53.19
2022-12-24T19:07:46.790Z,53.19
2022-12-24T19:08:56.616Z,53.18
2022-12-24T19:09:46.701Z,53.19
2022-12-24T19:10:46.740Z,53.16
2022-12-24T19:11:46.774Z,53.14
2022-12-24T19:12:47.049Z,53.12
2022-12-24T19:13:47.088Z,53.12
2022-12-24T19:14:46.855Z,53.10
2022-12-24T19:15:46.920Z,53.09
2022-12-24T19:16:46.971Z,53.07
2022-12-24T19:17:47.013Z,53.07
2022-12-24T19:18:47.040Z,53.04
2022-12-24T19:19:47.075Z,53.04
2022-12-24T19:20:47.082Z,53.03
2022-12-24T19:21:47.212Z,53.00
2022-12-24T19:22:47.155Z,53.02
2022-12-24T19:23:47.244Z,53.00
2022-12-24T19:24:47.264Z,52.97
2022-12-24T19:25:47.327Z,52.97
2022-12-24T19:26:47.409Z,52.97
2022-12-24T19:27:47.392Z,52.95
2022-12-24T19:28:47.435Z,52.92
2022-12-24T19:29:47.466Z,52.92
2022-12-24T19:30:47.482Z,52.90
2022-12-24T19:31:47.883Z,52.90
2022-12-24T19:32:47.560Z,52.88
2022-12-24T19:33:47.637Z,52.89
2022-12-24T19:34:47.664Z,52.88
2022-12-24T19:35:47.695Z,52.86
2022-12-24T19:36:47.703Z,52.85
2022-12-24T19:37:47.792Z,52.83
2022-12-24T19:38:47.820Z,52.83
2022-12-24T19:39:47.833Z,52.82
2022-12-24T19:40:47.859Z,52.80
2022-12-24T19:41:47.907Z,52.80
2022-12-24T19:42:47.924Z,52.78
2022-12-24T19:43:48.210Z,52.77
2022-12-24T19:44:48.016Z,52.78
2022-12-24T19:45:48.141Z,52.76
2022-12-24T19:46:48.360Z,52.75
2022-12-24T19:47:48.205Z,52.76
2022-12-24T19:48:48.227Z,52.74
2022-12-24T19:49:48.295Z,52.73
2022-12-24T19:50:48.306Z,52.72
2022-12-24T19:51:48.644Z,52.71
2022-12-24T19:52:48.409Z,52.69
2022-12-24T19:53:48.716Z,52.68
2022-12-24T19:54:48.489Z,52.69
2022-12-24T19:55:48.555Z,52.67
2022-12-24T19:56:48.565Z,52.66
2022-12-24T19:57:49.895Z,52.64
2022-12-24T19:58:48.649Z,52.64
2022-12-24T19:59:48.719Z,52.63
2022-12-24T20:00:48.753Z,52.62
2022-12-24T20:01:49.193Z,52.59
2022-12-24T20:02:49.239Z,52.61
2022-12-24T20:03:48.870Z,52.61
2022-12-24T20:04:48.882Z,52.58
2022-12-24T20:05:48.947Z,52.58
2022-12-24T20:06:51.309Z,52.57
2022-12-24T20:07:49.277Z,52.57
2022-12-24T20:08:49.034Z,52.56
2022-12-24T20:09:49.121Z,52.54
2022-12-24T20:10:49.127Z,52.53
2022-12-24T20:11:49.205Z,52.53
2022-12-24T20:12:49.233Z,52.53
2022-12-24T20:13:49.572Z,52.53
2022-12-24T20:14:49.327Z,52.52
2022-12-24T20:15:49.411Z,52.51
2022-12-24T20:16:49.501Z,52.50
2022-12-24T20:17:49.539Z,52.49
2022-12-24T20:18:49.906Z,52.47
2022-12-24T20:19:49.617Z,52.46
2022-12-24T20:20:49.634Z,52.46
2022-12-24T20:21:49.719Z,52.44
2022-12-24T20:22:49.719Z,52.44
2022-12-24T20:23:49.778Z,52.40
2022-12-24T20:24:50.194Z,52.39
2022-12-24T20:25:49.850Z,52.39
2022-12-24T20:26:49.869Z,52.37
2022-12-24T20:27:49.934Z,52.39
2022-12-24T20:28:49.948Z,52.36
